Airfield :
LOGIN :

Register | Disclaimer

   EN    FR    IT 

 










Legend :    VFR   Marginal VFR   IFR   Intensive IFR   Very Intensive IFR
Visi :
Ceiling :
>= 8 km
>= 3000ft
5 to 8 km
1000 to 3000 ft
1500m to 5 km
500 to 1000 ft
800 to 1500m
200 to 500 ft
< 800m
< 200 ft
Symbols :   Thunderstorms  Fog  Heavy snow  Heavy precipitations  Wind > 20 kt
SIGMETs :     Misc.  Thunderstorms  Icing  Turbulence  Mountain Waves  Volcanic Ashes






- Airport Elevation : 12 ft
- IATA code : CQF


LFAC - Calais

CURRENT METAR :
  • 041200Z AUTO 27013KT 240V310 CAVOK 21/09 Q1021

EXPIRED METARs :
  • 041130Z AUTO 29013KT CAVOK 22/10 Q1021
  • 041100Z AUTO 28015KT 9999 ////// 21/11 Q1021
  • 041030Z AUTO 30012KT 9999 BKN030 BKN035 21/13 Q1021
  • 041000Z AUTO 31007KT 260V360 9999 FEW020 SCT031 BKN037 20/15 Q1021
  • 040930Z AUTO 31009KT 280V340 9999 FEW020 SCT030 BKN037 19/14 Q1021

TAF N/A
ATIS : +33 3 21 00 11 14



MET'MAP, your aeronautical weather chart ! - Copyright ORBIFLY December 2007 - Disclaimer

ORBIFLY MET'MAP TEAM :

Programming & Development : Alexandra Zaïnal
Original concept : Baudouin d'Aumeries
Technical & hardware support : Manuel Goepfert
Assistance : Marc-Olivier Méhu




SOURCES & CREDITS :

   NOAA